createdAt,value
2019-02-16T00:00:45.624Z,2.40
2019-02-16T00:03:18.014Z,1.83
2019-02-16T00:05:51.196Z,2.00
2019-02-16T00:08:25.492Z,2.17
2019-02-16T00:11:00.298Z,2.17
2019-02-16T00:13:36.636Z,2.73
2019-02-16T00:16:10.896Z,1.93
2019-02-16T00:18:45.546Z,2.33
2019-02-16T00:21:20.421Z,2.50
2019-02-16T00:24:00.536Z,2.10
2019-02-16T00:26:30.961Z,2.40
2019-02-16T00:29:04.501Z,1.80
2019-02-16T00:31:38.625Z,2.37
2019-02-16T00:34:09.935Z,3.97
2019-02-16T00:36:42.996Z,2.20
2019-02-16T00:39:17.645Z,2.27
2019-02-16T00:41:50.431Z,2.20
2019-02-16T00:44:23.661Z,2.20
2019-02-16T00:46:56.829Z,2.10
2019-02-16T00:49:30.689Z,2.50
2019-02-16T00:52:01.960Z,3.50
2019-02-16T00:54:34.555Z,2.30
2019-02-16T00:57:04.765Z,2.53
2019-02-16T00:59:37.756Z,2.33
2019-02-16T01:02:08.489Z,2.40
2019-02-16T01:04:39.966Z,2.20
2019-02-16T01:07:15.361Z,3.30
2019-02-16T01:09:47.585Z,3.03
2019-02-16T01:12:20.570Z,1.93
2019-02-16T01:14:51.359Z,2.17
2019-02-16T01:17:25.324Z,2.17
2019-02-16T01:19:57.587Z,2.40
2019-02-16T01:22:29.745Z,2.40
2019-02-16T01:25:03.254Z,2.83
2019-02-16T01:27:33.461Z,2.17
2019-02-16T01:30:06.663Z,2.37
2019-02-16T01:32:37.720Z,2.10
2019-02-16T01:35:14.002Z,1.93
2019-02-16T01:37:44.808Z,2.20
2019-02-16T01:40:18.265Z,2.23
2019-02-16T01:42:49.441Z,1.67
2019-02-16T01:45:26.178Z,1.90
2019-02-16T01:47:56.417Z,2.73
2019-02-16T01:50:34.563Z,2.20
2019-02-16T01:53:08.598Z,2.40
2019-02-16T01:55:43.227Z,2.03
2019-02-16T01:58:16.865Z,2.47
2019-02-16T02:00:48.748Z,2.43
2019-02-16T02:05:56.890Z,2.00
2019-02-16T02:08:29.574Z,2.20
2019-02-16T02:11:00.644Z,2.33
2019-02-16T02:13:35.981Z,1.97
2019-02-16T02:16:07.610Z,1.90
2019-02-16T02:18:39.814Z,1.70
2019-02-16T02:21:11.866Z,1.90
2019-02-16T02:23:49.074Z,2.20
2019-02-16T02:26:19.512Z,1.73
2019-02-16T02:28:56.898Z,2.17
2019-02-16T02:31:29.763Z,2.47
2019-02-16T02:36:49.674Z,2.07
2019-02-16T02:39:21.803Z,2.67
2019-02-16T02:41:53.265Z,2.10
2019-02-16T02:44:25.985Z,1.60
2019-02-16T02:46:58.360Z,1.90
2019-02-16T02:49:31.458Z,1.83
2019-02-16T02:52:06.586Z,1.40
2019-02-16T02:54:38.319Z,2.10
2019-02-16T02:57:10.315Z,2.10
2019-02-16T02:59:43.721Z,1.90
2019-02-16T03:04:57.258Z,1.87
2019-02-16T03:07:33.630Z,1.60
2019-02-16T03:10:03.717Z,1.50
2019-02-16T03:12:35.945Z,1.83
2019-02-16T03:15:08.474Z,1.53
2019-02-16T03:17:40.660Z,1.77
2019-02-16T03:20:14.994Z,1.60
2019-02-16T03:23:18.105Z,1.37
2019-02-16T03:25:52.033Z,2.37
2019-02-16T03:31:59.996Z,1.50
2019-02-16T03:34:43.522Z,1.53
2019-02-16T03:37:57.712Z,2.13
2019-02-16T03:40:28.871Z,1.83
2019-02-16T03:43:05.396Z,1.90
2019-02-16T03:45:36.544Z,1.63
2019-02-16T03:48:13.912Z,1.57
2019-02-16T03:50:45.244Z,2.00
2019-02-16T03:53:19.496Z,1.80
2019-02-16T03:55:50.232Z,1.90
2019-02-16T03:58:22.837Z,1.50
2019-02-16T04:00:54.468Z,1.63
2019-02-16T04:03:28.304Z,1.50
2019-02-16T04:05:59.631Z,1.60
2019-02-16T04:08:33.065Z,2.00
2019-02-16T04:11:05.810Z,1.47
2019-02-16T04:13:47.734Z,2.10
2019-02-16T04:16:17.743Z,1.77
2019-02-16T04:18:52.960Z,1.60
2019-02-16T04:21:26.458Z,1.87
2019-02-16T04:24:01.311Z,1.70
2019-02-16T04:26:36.858Z,1.63
2019-02-16T04:29:09.114Z,1.60
2019-02-16T04:31:45.079Z,1.80
2019-02-16T04:34:18.477Z,1.70
2019-02-16T04:36:54.749Z,1.60
2019-02-16T04:39:30.042Z,1.90
2019-02-16T04:42:04.914Z,1.80
2019-02-16T04:44:37.303Z,1.90
2019-02-16T04:47:10.932Z,1.80
2019-02-16T04:49:45.315Z,1.70
2019-02-16T04:52:17.443Z,1.73
2019-02-16T04:54:52.734Z,1.77
2019-02-16T04:57:25.267Z,2.00
2019-02-16T04:59:58.186Z,1.60
2019-02-16T05:02:35.158Z,1.57
2019-02-16T05:05:05.239Z,1.40
2019-02-16T05:07:40.198Z,1.47
2019-02-16T05:10:10.531Z,1.47
2019-02-16T05:12:46.464Z,2.33
2019-02-16T05:15:18.150Z,1.63
2019-02-16T05:17:55.342Z,1.73
2019-02-16T05:20:30.335Z,1.70
2019-02-16T05:23:05.226Z,1.50
2019-02-16T05:25:37.128Z,1.77
2019-02-16T05:28:14.790Z,1.80
2019-02-16T05:30:49.831Z,1.53
2019-02-16T05:33:20.797Z,1.33
2019-02-16T05:35:56.013Z,1.60
2019-02-16T05:38:27.915Z,1.60
2019-02-16T05:41:07.651Z,1.50
2019-02-16T05:43:41.661Z,1.97
2019-02-16T05:46:11.961Z,1.33
2019-02-16T05:48:45.446Z,2.20
2019-02-16T05:51:15.844Z,1.70
2019-02-16T05:53:49.888Z,1.80
2019-02-16T05:56:21.510Z,1.50
2019-02-16T05:58:55.556Z,1.50
2019-02-16T06:01:26.697Z,1.60
2019-02-16T06:04:02.870Z,1.47
2019-02-16T06:06:34.610Z,1.57
2019-02-16T06:09:09.419Z,1.47
2019-02-16T06:11:39.735Z,1.80
2019-02-16T06:14:16.360Z,2.00
2019-02-16T06:16:46.738Z,1.83
2019-02-16T06:19:20.584Z,1.60
2019-02-16T06:21:56.844Z,1.77
2019-02-16T06:24:35.790Z,1.73
2019-02-16T06:27:14.902Z,1.63
2019-02-16T06:29:45.418Z,1.50
2019-02-16T06:32:18.942Z,1.90
2019-02-16T06:35:24.062Z,2.47
2019-02-16T06:37:58.412Z,1.67
2019-02-16T06:40:28.718Z,1.53
2019-02-16T06:42:59.925Z,1.67
2019-02-16T06:45:31.565Z,1.40
2019-02-16T06:48:08.219Z,1.33
2019-02-16T06:50:40.174Z,1.90
2019-02-16T06:53:13.744Z,1.70
2019-02-16T06:55:54.146Z,1.67
2019-02-16T06:58:29.054Z,1.40
2019-02-16T07:03:37.302Z,1.50
2019-02-16T07:06:10.348Z,1.53
2019-02-16T07:08:46.133Z,1.57
2019-02-16T07:11:22.571Z,1.60
2019-02-16T07:13:56.535Z,1.60
2019-02-16T07:16:53.683Z,1.40
2019-02-16T07:19:35.477Z,1.40
2019-02-16T07:22:05.529Z,1.27
2019-02-16T07:24:40.839Z,1.70
2019-02-16T07:27:13.629Z,1.50
2019-02-16T07:29:48.149Z,1.97
2019-02-16T07:32:26.345Z,2.00
2019-02-16T07:35:03.761Z,2.03
2019-02-16T07:37:36.746Z,2.07
2019-02-16T07:40:10.018Z,2.10
2019-02-16T07:43:00.058Z,1.97
2019-02-16T07:45:59.585Z,1.77
2019-02-16T07:48:48.879Z,1.60
2019-02-16T07:52:02.965Z,1.67
2019-02-16T07:54:57.549Z,1.90
2019-02-16T07:57:36.141Z,2.20
2019-02-16T08:00:17.945Z,2.10
2019-02-16T08:03:00.232Z,1.70
2019-02-16T08:05:58.003Z,1.87
2019-02-16T08:08:43.411Z,1.87
2019-02-16T08:11:32.467Z,1.73
2019-02-16T08:14:18.383Z,1.57
2019-02-16T08:17:06.302Z,1.77
2019-02-16T08:19:58.987Z,1.50
2019-02-16T08:22:41.701Z,1.70
2019-02-16T08:25:49.620Z,2.00
2019-02-16T08:28:34.922Z,2.00
2019-02-16T08:31:18.245Z,1.73
2019-02-16T08:34:04.179Z,1.60
2019-02-16T08:36:47.517Z,1.80
2019-02-16T08:39:43.661Z,2.30
2019-02-16T08:42:33.013Z,1.90
2019-02-16T08:45:27.741Z,1.80
2019-02-16T08:48:05.223Z,1.50
2019-02-16T08:50:43.395Z,1.50
2019-02-16T08:53:37.811Z,1.70
2019-02-16T08:56:25.391Z,1.73
2019-02-16T08:59:36.717Z,1.87
2019-02-16T09:02:40.840Z,2.20
2019-02-16T09:05:32.180Z,1.57
2019-02-16T09:08:22.521Z,2.00
2019-02-16T09:11:15.114Z,1.80
2019-02-16T09:14:04.143Z,2.20
2019-02-16T09:17:10.360Z,1.77
2019-02-16T09:19:54.347Z,3.03
2019-02-16T09:22:35.463Z,1.60
2019-02-16T09:25:28.711Z,1.93
2019-02-16T09:28:14.305Z,2.03
2019-02-16T09:31:05.732Z,2.50
2019-02-16T09:33:58.202Z,1.53
2019-02-16T09:36:56.266Z,2.47
2019-02-16T09:39:36.290Z,2.50
2019-02-16T09:42:25.140Z,2.00
2019-02-16T09:45:16.515Z,1.77
2019-02-16T09:48:07.606Z,2.00
2019-02-16T09:50:57.694Z,2.50
2019-02-16T09:53:46.734Z,2.17
2019-02-16T09:56:57.941Z,2.37
2019-02-16T09:59:40.447Z,2.60
2019-02-16T10:02:35.798Z,1.63
2019-02-16T10:05:22.828Z,2.30
2019-02-16T10:08:09.206Z,2.20
2019-02-16T10:10:52.315Z,2.70
2019-02-16T10:13:50.585Z,2.73
2019-02-16T10:16:38.536Z,2.50
2019-02-16T10:19:25.830Z,2.90
2019-02-16T10:22:30.072Z,2.50
2019-02-16T10:25:18.519Z,3.70
2019-02-16T10:28:13.238Z,3.33
2019-02-16T10:31:17.816Z,2.83
2019-02-16T10:33:59.647Z,2.93
2019-02-16T10:36:57.750Z,3.00
2019-02-16T10:39:40.928Z,3.20
2019-02-16T10:42:40.790Z,3.77
2019-02-16T10:45:35.380Z,5.77
2019-02-16T10:48:16.905Z,4.10
2019-02-16T10:51:09.936Z,3.73
2019-02-16T10:53:50.802Z,3.40
2019-02-16T10:56:56.234Z,3.90
2019-02-16T10:59:55.660Z,3.50
2019-02-16T11:02:56.264Z,3.20
2019-02-16T11:05:43.996Z,4.43
2019-02-16T11:08:39.964Z,3.90
2019-02-16T11:11:27.634Z,3.40
2019-02-16T11:14:30.597Z,3.27
2019-02-16T11:17:08.922Z,4.80
2019-02-16T11:19:48.637Z,3.60
2019-02-16T11:22:37.624Z,3.97
2019-02-16T11:25:37.526Z,4.93
2019-02-16T11:28:35.442Z,3.73
2019-02-16T11:31:28.493Z,4.03
2019-02-16T11:34:14.906Z,3.57
2019-02-16T11:37:05.131Z,3.70
2019-02-16T11:39:53.202Z,4.30
2019-02-16T11:43:03.270Z,4.00
2019-02-16T11:45:54.440Z,4.00
2019-02-16T11:48:41.515Z,4.17
2019-02-16T11:51:51.715Z,3.93
2019-02-16T11:54:45.512Z,3.90
2019-02-16T11:57:30.045Z,4.00
2019-02-16T12:00:16.632Z,3.70
2019-02-16T12:03:08.745Z,4.13
2019-02-16T12:05:47.202Z,4.30
2019-02-16T12:08:39.524Z,3.97
2019-02-16T12:11:32.453Z,3.67
2019-02-16T12:14:23.209Z,4.57
2019-02-16T12:17:16.609Z,4.00
2019-02-16T12:19:55.043Z,3.93
2019-02-16T12:22:49.040Z,4.60
2019-02-16T12:25:47.776Z,4.77
2019-02-16T12:28:49.923Z,3.93
2019-02-16T12:31:58.727Z,4.80
2019-02-16T12:34:59.661Z,4.43
2019-02-16T12:37:58.720Z,4.30
2019-02-16T12:40:56.276Z,5.00
2019-02-16T12:43:46.590Z,3.93
2019-02-16T12:46:45.743Z,4.20
2019-02-16T12:49:41.377Z,4.73
2019-02-16T12:52:34.937Z,4.13
2019-02-16T12:55:38.441Z,4.30
2019-02-16T12:58:30.179Z,3.93
2019-02-16T13:01:22.573Z,4.50
2019-02-16T13:04:29.403Z,3.63
2019-02-16T13:07:15.756Z,4.57
2019-02-16T13:10:10.263Z,4.50
2019-02-16T13:13:09.539Z,4.60
2019-02-16T13:16:12.328Z,4.53
2019-02-16T13:19:03.894Z,4.00
2019-02-16T13:22:04.814Z,4.93
2019-02-16T13:25:04.973Z,4.60
2019-02-16T13:39:41.658Z,5.00
2019-02-16T13:42:27.035Z,3.83
2019-02-16T13:45:20.436Z,4.57
2019-02-16T13:48:10.401Z,4.17
2019-02-16T13:51:03.413Z,3.90
2019-02-16T13:53:50.049Z,4.47
2019-02-16T13:57:03.841Z,3.90
2019-02-16T13:59:44.994Z,4.60
2019-02-16T14:02:40.357Z,4.83
2019-02-16T14:05:36.477Z,4.60
2019-02-16T14:08:29.357Z,5.07
2019-02-16T14:11:16.941Z,4.40
2019-02-16T14:14:13.706Z,4.57
2019-02-16T14:17:08.927Z,4.57
2019-02-16T14:19:44.307Z,4.20
2019-02-16T14:22:18.385Z,5.30
2019-02-16T14:24:59.419Z,5.23
2019-02-16T14:27:30.403Z,4.93
2019-02-16T14:30:04.915Z,4.93
2019-02-16T14:32:35.121Z,4.47
2019-02-16T14:38:07.161Z,4.73
2019-02-16T14:40:44.108Z,4.20
2019-02-16T14:43:18.269Z,4.60
2019-02-16T14:45:49.507Z,5.17
2019-02-16T14:48:26.955Z,4.53
2019-02-16T14:50:57.426Z,4.80
2019-02-16T14:53:30.773Z,4.43
2019-02-16T14:56:06.099Z,4.57
2019-02-16T14:58:40.691Z,4.80
2019-02-16T15:01:14.319Z,5.07
2019-02-16T15:03:55.431Z,4.50
2019-02-16T15:06:33.452Z,3.87
2019-02-16T15:09:08.267Z,3.87
2019-02-16T15:11:47.029Z,4.73
2019-02-16T15:16:56.193Z,4.53
2019-02-16T15:19:29.604Z,4.67
2019-02-16T15:22:00.352Z,4.97
2019-02-16T15:24:34.387Z,4.57
2019-02-16T15:27:07.767Z,4.63
2019-02-16T15:29:42.726Z,4.30
2019-02-16T15:32:14.417Z,5.33
2019-02-16T15:34:48.897Z,4.40
2019-02-16T15:37:29.525Z,5.23
2019-02-16T15:40:03.709Z,4.87
2019-02-16T15:42:42.417Z,5.03
2019-02-16T15:45:24.731Z,5.03
2019-02-16T15:47:58.085Z,5.50
2019-02-16T15:50:33.299Z,5.10
2019-02-16T15:53:03.876Z,5.13
2019-02-16T15:55:38.107Z,5.97
2019-02-16T15:58:13.003Z,5.67
2019-02-16T16:00:52.355Z,4.43
2019-02-16T16:03:24.725Z,5.33
2019-02-16T16:05:59.877Z,4.50
2019-02-16T16:08:44.563Z,5.50
2019-02-16T16:11:27.065Z,6.73
2019-02-16T16:14:15.774Z,6.33
2019-02-16T16:17:04.897Z,5.33
2019-02-16T16:19:45.519Z,5.07
2019-02-16T16:22:36.475Z,5.33
2019-02-16T16:25:20.384Z,4.77
2019-02-16T16:28:18.405Z,4.67
2019-02-16T16:31:03.119Z,4.80
2019-02-16T16:34:00.252Z,4.67
2019-02-16T16:36:50.390Z,4.37
2019-02-16T16:39:53.905Z,4.73
2019-02-16T16:42:36.380Z,6.47
2019-02-16T16:45:35.230Z,5.40
2019-02-16T16:48:34.998Z,5.57
2019-02-16T16:51:25.712Z,4.70
2019-02-16T16:54:25.452Z,5.77
2019-02-16T16:57:07.338Z,5.40
2019-02-16T17:00:04.696Z,5.33
2019-02-16T17:02:49.252Z,5.47
2019-02-16T17:05:34.416Z,4.23
2019-02-16T17:08:25.252Z,5.60
2019-02-16T17:11:06.188Z,5.07
2019-02-16T17:14:00.620Z,4.87
2019-02-16T17:17:04.870Z,4.90
2019-02-16T17:19:55.948Z,4.90
2019-02-16T17:22:57.277Z,4.83
2019-02-16T17:25:57.472Z,4.60
2019-02-16T17:28:41.440Z,5.30
2019-02-16T17:31:41.306Z,5.07
2019-02-16T17:34:31.526Z,5.47
2019-02-16T17:37:26.361Z,4.67
2019-02-16T17:40:13.514Z,4.63
2019-02-16T17:43:04.620Z,5.37
2019-02-16T17:45:59.103Z,4.60
2019-02-16T17:48:53.300Z,4.83
2019-02-16T17:51:53.382Z,4.93
2019-02-16T17:54:43.470Z,4.53
2019-02-16T18:00:19.592Z,5.33
2019-02-16T18:03:13.467Z,6.20
2019-02-16T18:06:08.170Z,5.73
2019-02-16T18:09:00.810Z,6.37
2019-02-16T18:11:49.596Z,7.27
2019-02-16T18:14:45.914Z,6.83
2019-02-16T18:17:43.203Z,5.70
2019-02-16T18:20:26.018Z,5.53
2019-02-16T18:23:14.973Z,4.47
2019-02-16T18:26:06.297Z,5.37
2019-02-16T18:28:57.562Z,5.33
2019-02-16T18:31:49.141Z,5.63
2019-02-16T18:34:42.826Z,5.90
2019-02-16T18:37:44.761Z,5.37
2019-02-16T18:40:34.510Z,6.27
2019-02-16T18:43:27.717Z,5.53
2019-02-16T18:46:23.994Z,5.27
2019-02-16T18:49:24.061Z,5.60
2019-02-16T18:52:27.853Z,5.13
2019-02-16T18:55:35.778Z,5.30
2019-02-16T18:58:14.703Z,5.10
2019-02-16T19:01:07.130Z,5.40
2019-02-16T19:03:54.582Z,6.63
2019-02-16T19:06:41.090Z,6.30
2019-02-16T19:09:36.493Z,4.73
2019-02-16T19:12:34.869Z,5.00
2019-02-16T19:15:27.131Z,5.00
2019-02-16T19:18:18.883Z,5.30
2019-02-16T19:21:05.958Z,5.27
2019-02-16T19:23:49.868Z,5.40
2019-02-16T19:26:41.747Z,5.60
2019-02-16T19:29:45.717Z,5.37
2019-02-16T19:32:40.726Z,5.33
2019-02-16T19:35:39.157Z,6.20
2019-02-16T19:38:33.911Z,7.87
2019-02-16T19:41:12.634Z,6.87
2019-02-16T19:44:05.715Z,5.80
2019-02-16T19:47:03.682Z,7.13
2019-02-16T19:50:00.368Z,6.30
2019-02-16T19:52:45.555Z,5.73
2019-02-16T19:55:53.461Z,6.17
2019-02-16T19:58:41.481Z,5.67
2019-02-16T20:01:47.540Z,5.57
2019-02-16T20:04:45.542Z,5.43
2019-02-16T20:07:40.798Z,6.20
2019-02-16T20:10:19.691Z,5.93
2019-02-16T20:13:14.941Z,5.23
2019-02-16T20:15:57.146Z,6.87
2019-02-16T20:19:06.410Z,5.50
2019-02-16T20:21:56.183Z,5.60
2019-02-16T20:24:49.762Z,5.13
2019-02-16T20:27:37.328Z,6.17
2019-02-16T20:30:30.631Z,5.30
2019-02-16T20:33:32.247Z,6.27
2019-02-16T20:36:18.505Z,5.50
2019-02-16T20:39:02.303Z,5.77
2019-02-16T20:41:39.263Z,6.97
2019-02-16T20:44:32.027Z,5.70
2019-02-16T20:47:25.259Z,6.27
2019-02-16T20:50:21.439Z,6.00
2019-02-16T20:56:13.902Z,5.50
2019-02-16T20:59:20.812Z,5.70
2019-02-16T21:02:11.682Z,5.70
2019-02-16T21:05:08.830Z,6.83
2019-02-16T21:08:13.927Z,6.37
2019-02-16T21:10:59.402Z,7.27
2019-02-16T21:13:44.639Z,7.00
2019-02-16T21:16:50.134Z,7.20
2019-02-16T21:19:31.556Z,7.80
2019-02-16T21:22:36.657Z,7.80
2019-02-16T21:25:36.869Z,7.53
2019-02-16T21:28:27.809Z,7.50
2019-02-16T21:31:31.774Z,6.17
2019-02-16T21:34:29.913Z,6.70
2019-02-16T21:37:12.363Z,7.40
2019-02-16T21:40:07.296Z,6.23
2019-02-16T21:42:49.579Z,5.83
2019-02-16T21:45:48.324Z,6.50
2019-02-16T21:48:31.185Z,6.43
2019-02-16T21:51:24.087Z,6.47
2019-02-16T21:54:13.664Z,6.87
2019-02-16T21:57:18.078Z,6.37
2019-02-16T22:00:06.001Z,7.00
2019-02-16T22:05:46.852Z,6.20
2019-02-16T22:08:27.070Z,5.50
2019-02-16T22:11:17.175Z,5.80
2019-02-16T22:13:54.952Z,6.30
2019-02-16T22:19:06.004Z,6.67
2019-02-16T22:21:36.862Z,6.43
2019-02-16T22:24:07.015Z,6.80
2019-02-16T22:26:40.690Z,6.40
2019-02-16T22:29:11.244Z,6.67
2019-02-16T22:31:45.155Z,7.43
2019-02-16T22:34:16.108Z,7.00
2019-02-16T22:36:48.055Z,6.40
2019-02-16T22:39:18.171Z,6.73
2019-02-16T22:41:52.521Z,7.10
2019-02-16T22:44:22.510Z,6.93
2019-02-16T22:46:57.450Z,7.33
2019-02-16T22:49:30.248Z,6.57
2019-02-16T22:52:04.349Z,6.27
2019-02-16T22:54:35.270Z,6.70
2019-02-16T22:57:07.036Z,6.80
2019-02-16T22:59:38.779Z,6.53
2019-02-16T23:02:11.517Z,6.40
2019-02-16T23:04:43.068Z,6.10
2019-02-16T23:07:14.374Z,6.27
2019-02-16T23:09:45.631Z,6.67
2019-02-16T23:12:16.726Z,6.23
2019-02-16T23:14:50.512Z,6.80
2019-02-16T23:17:24.166Z,6.17
2019-02-16T23:20:03.650Z,5.17
2019-02-16T23:22:35.690Z,6.27
2019-02-16T23:25:08.591Z,6.93
2019-02-16T23:27:39.842Z,6.23
2019-02-16T23:30:13.644Z,6.47
2019-02-16T23:32:45.714Z,5.77
2019-02-16T23:35:18.222Z,6.17
2019-02-16T23:37:51.038Z,7.10
2019-02-16T23:40:25.292Z,6.13
2019-02-16T23:42:57.775Z,5.57
2019-02-16T23:45:29.397Z,7.87
2019-02-16T23:48:03.433Z,6.70
2019-02-16T23:50:34.476Z,6.30
2019-02-16T23:53:08.348Z,6.67
2019-02-16T23:55:41.171Z,6.03
2019-02-16T23:58:16.719Z,5.90
